sensor_id;sensor_type;location;lat;lon;timestamp;pressure;altitude;pressure_sealevel;temperature;humidity
72262;BME280;60173;52.112;8.648;2023-02-28T00:00:33;102109.38;;;-2.52;85.39
72262;BME280;60173;52.112;8.648;2023-02-28T00:02:59;102102.25;;;-2.59;86.03
72262;BME280;60173;52.112;8.648;2023-02-28T00:05:27;102104.88;;;-2.51;86.19
72262;BME280;60173;52.112;8.648;2023-02-28T00:07:54;102099.22;;;-2.48;85.98
72262;BME280;60173;52.112;8.648;2023-02-28T00:10:24;102104.56;;;-2.56;86.03
72262;BME280;60173;52.112;8.648;2023-02-28T00:12:52;102102.25;;;-2.67;86.41
72262;BME280;60173;52.112;8.648;2023-02-28T00:15:18;102099.22;;;-2.56;86.58
72262;BME280;60173;52.112;8.648;2023-02-28T00:17:45;102098.25;;;-2.63;86.30
72262;BME280;60173;52.112;8.648;2023-02-28T00:20:13;102100.91;;;-2.63;86.55
72262;BME280;60173;52.112;8.648;2023-02-28T00:22:43;102107.22;;;-2.56;86.28
72262;BME280;60173;52.112;8.648;2023-02-28T00:25:11;102100.88;;;-2.55;86.68
72262;BME280;60173;52.112;8.648;2023-02-28T00:27:38;102107.06;;;-2.63;86.67
72262;BME280;60173;52.112;8.648;2023-02-28T00:30:07;102112.41;;;-2.63;87.14
72262;BME280;60173;52.112;8.648;2023-02-28T00:32:33;102104.06;;;-2.52;87.30
72262;BME280;60173;52.112;8.648;2023-02-28T00:35:00;102109.03;;;-2.48;87.50
72262;BME280;60173;52.112;8.648;2023-02-28T00:37:27;102112.88;;;-2.59;87.41
72262;BME280;60173;52.112;8.648;2023-02-28T00:39:53;102114.19;;;-2.63;87.65
72262;BME280;60173;52.112;8.648;2023-02-28T00:42:19;102105.56;;;-2.57;87.73
72262;BME280;60173;52.112;8.648;2023-02-28T00:44:45;102110.09;;;-2.27;85.99
72262;BME280;60173;52.112;8.648;2023-02-28T00:47:12;102110.00;;;-2.02;85.33
72262;BME280;60173;52.112;8.648;2023-02-28T00:49:38;102117.75;;;-2.23;85.32
72262;BME280;60173;52.112;8.648;2023-02-28T00:52:05;102116.13;;;-2.41;86.12
72262;BME280;60173;52.112;8.648;2023-02-28T00:54:31;102114.16;;;-2.39;87.11
72262;BME280;60173;52.112;8.648;2023-02-28T00:56:58;102114.84;;;-2.45;87.30
72262;BME280;60173;52.112;8.648;2023-02-28T00:59:25;102115.34;;;-2.50;87.69
72262;BME280;60173;52.112;8.648;2023-02-28T01:01:52;102111.53;;;-2.55;88.06
72262;BME280;60173;52.112;8.648;2023-02-28T01:04:18;102114.03;;;-2.54;88.34
72262;BME280;60173;52.112;8.648;2023-02-28T01:06:45;102118.53;;;-2.62;88.47
72262;BME280;60173;52.112;8.648;2023-02-28T01:09:11;102119.03;;;-2.67;88.63
72262;BME280;60173;52.112;8.648;2023-02-28T01:11:38;102121.53;;;-2.65;88.80
72262;BME280;60173;52.112;8.648;2023-02-28T01:14:04;102123.53;;;-2.59;88.72
72262;BME280;60173;52.112;8.648;2023-02-28T01:16:31;102120.25;;;-2.78;88.42
72262;BME280;60173;52.112;8.648;2023-02-28T01:18:57;102123.25;;;-2.89;88.92
72262;BME280;60173;52.112;8.648;2023-02-28T01:21:24;102122.72;;;-2.92;89.44
72262;BME280;60173;52.112;8.648;2023-02-28T01:23:51;102119.25;;;-3.01;89.65
72262;BME280;60173;52.112;8.648;2023-02-28T01:26:21;102121.28;;;-3.03;89.71
72262;BME280;60173;52.112;8.648;2023-02-28T01:28:50;102120.09;;;-3.09;90.26
72262;BME280;60173;52.112;8.648;2023-02-28T01:31:17;102121.75;;;-3.16;90.24
72262;BME280;60173;52.112;8.648;2023-02-28T01:33:44;102121.28;;;-3.20;90.29
72262;BME280;60173;52.112;8.648;2023-02-28T01:36:13;102120.59;;;-3.05;90.49
72262;BME280;60173;52.112;8.648;2023-02-28T01:38:40;102114.13;;;-3.11;90.24
72262;BME280;60173;52.112;8.648;2023-02-28T01:41:07;102109.81;;;-3.20;90.20
72262;BME280;60173;52.112;8.648;2023-02-28T01:46:10;102108.16;;;-3.29;90.55
72262;BME280;60173;52.112;8.648;2023-02-28T01:48:40;102111.63;;;-3.29;90.75
72262;BME280;60173;52.112;8.648;2023-02-28T01:51:11;102125.59;;;-3.27;90.66
72262;BME280;60173;52.112;8.648;2023-02-28T01:53:44;102114.44;;;-3.30;90.24
72262;BME280;60173;52.112;8.648;2023-02-28T01:56:13;102116.59;;;-3.42;90.56
72262;BME280;60173;52.112;8.648;2023-02-28T01:58:44;102108.00;;;-3.44;91.19
72262;BME280;60173;52.112;8.648;2023-02-28T02:01:10;102119.28;;;-3.34;90.88
72262;BME280;60173;52.112;8.648;2023-02-28T02:03:37;102115.63;;;-3.41;90.88
72262;BME280;60173;52.112;8.648;2023-02-28T02:06:03;102114.28;;;-3.37;91.09
72262;BME280;60173;52.112;8.648;2023-02-28T02:08:30;102113.31;;;-3.44;91.05
72262;BME280;60173;52.112;8.648;2023-02-28T02:11:01;102109.47;;;-3.50;91.10
72262;BME280;60173;52.112;8.648;2023-02-28T02:16:32;102113.78;;;-3.49;91.40
72262;BME280;60173;52.112;8.648;2023-02-28T02:36:30;102102.66;;;-3.11;89.97
72262;BME280;60173;52.112;8.648;2023-02-28T02:39:12;102101.66;;;-3.19;90.25
72262;BME280;60173;52.112;8.648;2023-02-28T02:41:50;102099.03;;;-3.27;90.37
72262;BME280;60173;52.112;8.648;2023-02-28T02:44:24;102100.00;;;-3.36;90.79
72262;BME280;60173;52.112;8.648;2023-02-28T02:46:58;102099.69;;;-3.41;91.24
72262;BME280;60173;52.112;8.648;2023-02-28T02:49:31;102103.50;;;-3.52;91.31
72262;BME280;60173;52.112;8.648;2023-02-28T02:52:03;102108.81;;;-3.35;91.64
72262;BME280;60173;52.112;8.648;2023-02-28T02:54:34;102104.66;;;-3.22;91.49
72262;BME280;60173;52.112;8.648;2023-02-28T02:57:08;102112.13;;;-3.17;90.45
72262;BME280;60173;52.112;8.648;2023-02-28T02:59:38;102109.97;;;-3.30;90.33
72262;BME280;60173;52.112;8.648;2023-02-28T03:02:09;102117.94;;;-3.38;90.24
72262;BME280;60173;52.112;8.648;2023-02-28T03:04:43;102107.63;;;-3.57;90.47
72262;BME280;60173;52.112;8.648;2023-02-28T03:07:11;102118.09;;;-3.39;90.60
72262;BME280;60173;52.112;8.648;2023-02-28T03:09:37;102124.88;;;-3.53;90.26
72262;BME280;60173;52.112;8.648;2023-02-28T03:12:06;102114.91;;;-3.68;91.28
72262;BME280;60173;52.112;8.648;2023-02-28T03:15:15;102109.63;;;-3.51;91.46
72262;BME280;60173;52.112;8.648;2023-02-28T03:17:56;102105.31;;;-3.60;91.37
72262;BME280;60173;52.112;8.648;2023-02-28T03:20:36;102107.94;;;-3.69;91.24
72262;BME280;60173;52.112;8.648;2023-02-28T03:23:10;102111.41;;;-3.84;91.28
72262;BME280;60173;52.112;8.648;2023-02-28T03:25:53;102116.84;;;-3.94;92.00
72262;BME280;60173;52.112;8.648;2023-02-28T03:28:31;102112.69;;;-3.97;91.77
72262;BME280;60173;52.112;8.648;2023-02-28T03:33:50;102105.88;;;-4.07;92.47
72262;BME280;60173;52.112;8.648;2023-02-28T03:36:18;102103.72;;;-4.04;92.73
72262;BME280;60173;52.112;8.648;2023-02-28T03:38:57;102107.53;;;-4.06;92.30
72262;BME280;60173;52.112;8.648;2023-02-28T03:41:42;102109.16;;;-4.05;91.92
72262;BME280;60173;52.112;8.648;2023-02-28T03:44:13;102108.50;;;-4.16;92.10
72262;BME280;60173;52.112;8.648;2023-02-28T03:47:00;102112.75;;;-4.23;92.22
72262;BME280;60173;52.112;8.648;2023-02-28T03:49:32;102100.84;;;-4.19;92.31
72262;BME280;60173;52.112;8.648;2023-02-28T03:52:03;102109.31;;;-4.15;92.85
72262;BME280;60173;52.112;8.648;2023-02-28T03:54:32;102109.31;;;-4.15;92.29
72262;BME280;60173;52.112;8.648;2023-02-28T03:57:27;102103.47;;;-4.27;92.19
72262;BME280;60173;52.112;8.648;2023-02-28T03:59:59;102106.91;;;-4.35;92.49
72262;BME280;60173;52.112;8.648;2023-02-28T04:02:28;102104.22;;;-4.43;92.54
72262;BME280;60173;52.112;8.648;2023-02-28T04:04:54;102109.84;;;-4.46;92.45
72262;BME280;60173;52.112;8.648;2023-02-28T04:07:20;102104.34;;;-4.52;93.03
72262;BME280;60173;52.112;8.648;2023-02-28T04:09:47;102105.50;;;-4.55;93.39
72262;BME280;60173;52.112;8.648;2023-02-28T04:12:13;102114.59;;;-4.58;93.74
72262;BME280;60173;52.112;8.648;2023-02-28T04:14:39;102106.31;;;-4.63;93.53
72262;BME280;60173;52.112;8.648;2023-02-28T04:17:06;102105.94;;;-4.68;93.81
72262;BME280;60173;52.112;8.648;2023-02-28T04:19:32;102111.38;;;-4.69;94.10
72262;BME280;60173;52.112;8.648;2023-02-28T04:21:58;102114.50;;;-4.74;94.24
72262;BME280;60173;52.112;8.648;2023-02-28T04:24:27;102105.56;;;-4.73;94.65
72262;BME280;60173;52.112;8.648;2023-02-28T04:26:55;102102.38;;;-4.50;94.11
72262;BME280;60173;52.112;8.648;2023-02-28T04:29:27;102107.72;;;-4.42;93.50
72262;BME280;60173;52.112;8.648;2023-02-28T04:31:55;102110.00;;;-4.47;93.33
72262;BME280;60173;52.112;8.648;2023-02-28T04:34:21;102104.97;;;-4.59;93.58
72262;BME280;60173;52.112;8.648;2023-02-28T04:36:48;102110.53;;;-4.70;93.47
72262;BME280;60173;52.112;8.648;2023-02-28T04:39:27;102114.50;;;-4.74;93.91
72262;BME280;60173;52.112;8.648;2023-02-28T04:41:54;102109.97;;;-4.82;93.60
72262;BME280;60173;52.112;8.648;2023-02-28T04:44:21;102103.44;;;-4.95;93.40
72262;BME280;60173;52.112;8.648;2023-02-28T04:46:48;102108.22;;;-4.99;93.65
72262;BME280;60173;52.112;8.648;2023-02-28T04:49:14;102111.16;;;-5.02;93.91
72262;BME280;60173;52.112;8.648;2023-02-28T04:51:41;102105.75;;;-4.92;94.34
72262;BME280;60173;52.112;8.648;2023-02-28T04:54:08;102110.56;;;-4.96;94.40
72262;BME280;60173;52.112;8.648;2023-02-28T04:56:34;102105.34;;;-5.06;94.42
72262;BME280;60173;52.112;8.648;2023-02-28T04:59:00;102112.31;;;-5.05;94.53
72262;BME280;60173;52.112;8.648;2023-02-28T05:01:32;102109.59;;;-5.13;94.59
72262;BME280;60173;52.112;8.648;2023-02-28T05:04:00;102109.09;;;-5.16;94.80
72262;BME280;60173;52.112;8.648;2023-02-28T05:06:28;102116.00;;;-5.24;94.77
72262;BME280;60173;52.112;8.648;2023-02-28T05:08:55;102124.81;;;-5.33;95.07
72262;BME280;60173;52.112;8.648;2023-02-28T05:11:26;102119.44;;;-5.05;95.25
72262;BME280;60173;52.112;8.648;2023-02-28T05:13:54;102121.03;;;-5.12;95.17
72262;BME280;60173;52.112;8.648;2023-02-28T05:16:21;102118.38;;;-5.12;95.05
72262;BME280;60173;52.112;8.648;2023-02-28T05:18:47;102121.13;;;-5.22;94.96
72262;BME280;60173;52.112;8.648;2023-02-28T05:21:29;102120.09;;;-5.29;94.88
72262;BME280;60173;52.112;8.648;2023-02-28T05:23:59;102133.97;;;-5.27;94.88
72262;BME280;60173;52.112;8.648;2023-02-28T05:26:26;102129.47;;;-5.35;94.88
72262;BME280;60173;52.112;8.648;2023-02-28T05:28:53;102127.94;;;-5.37;95.20
72262;BME280;60173;52.112;8.648;2023-02-28T05:31:19;102125.31;;;-5.37;95.47
72262;BME280;60173;52.112;8.648;2023-02-28T05:33:46;102129.59;;;-5.36;96.02
72262;BME280;60173;52.112;8.648;2023-02-28T05:36:12;102131.94;;;-5.33;95.67
72262;BME280;60173;52.112;8.648;2023-02-28T05:38:39;102132.13;;;-5.35;95.46
72262;BME280;60173;52.112;8.648;2023-02-28T05:41:09;102132.94;;;-5.34;95.41
72262;BME280;60173;52.112;8.648;2023-02-28T05:43:36;102131.25;;;-5.35;95.42
72262;BME280;60173;52.112;8.648;2023-02-28T05:46:05;102134.91;;;-5.36;95.43
72262;BME280;60173;52.112;8.648;2023-02-28T05:48:32;102125.06;;;-5.44;95.27
72262;BME280;60173;52.112;8.648;2023-02-28T05:50:59;102137.47;;;-5.45;94.97
72262;BME280;60173;52.112;8.648;2023-02-28T05:53:26;102134.16;;;-5.47;95.15
72262;BME280;60173;52.112;8.648;2023-02-28T05:55:52;102130.53;;;-5.46;95.12
72262;BME280;60173;52.112;8.648;2023-02-28T05:58:19;102127.19;;;-5.48;95.25
72262;BME280;60173;52.112;8.648;2023-02-28T06:00:45;102133.91;;;-5.53;95.31
72262;BME280;60173;52.112;8.648;2023-02-28T06:03:11;102129.84;;;-5.48;95.60
72262;BME280;60173;52.112;8.648;2023-02-28T06:05:38;102139.72;;;-5.50;95.82
72262;BME280;60173;52.112;8.648;2023-02-28T06:08:04;102141.81;;;-5.43;96.00
72262;BME280;60173;52.112;8.648;2023-02-28T06:10:31;102133.00;;;-5.44;95.80
72262;BME280;60173;52.112;8.648;2023-02-28T06:13:00;102139.16;;;-5.43;95.87
72262;BME280;60173;52.112;8.648;2023-02-28T06:15:26;102134.16;;;-5.47;95.79
72262;BME280;60173;52.112;8.648;2023-02-28T06:17:53;102143.06;;;-5.48;95.92
72262;BME280;60173;52.112;8.648;2023-02-28T06:20:19;102137.63;;;-5.46;95.83
72262;BME280;60173;52.112;8.648;2023-02-28T06:22:45;102135.50;;;-5.42;95.93
72262;BME280;60173;52.112;8.648;2023-02-28T06:25:12;102135.91;;;-5.37;95.89
72262;BME280;60173;52.112;8.648;2023-02-28T06:27:38;102131.56;;;-5.38;95.72
72262;BME280;60173;52.112;8.648;2023-02-28T06:30:05;102144.19;;;-5.32;95.48
72262;BME280;60173;52.112;8.648;2023-02-28T06:32:31;102139.91;;;-5.33;95.17
72262;BME280;60173;52.112;8.648;2023-02-28T06:34:58;102140.59;;;-5.31;95.09
72262;BME280;60173;52.112;8.648;2023-02-28T06:37:24;102144.19;;;-5.32;95.16
72262;BME280;60173;52.112;8.648;2023-02-28T06:39:51;102143.91;;;-5.29;95.22
72262;BME280;60173;52.112;8.648;2023-02-28T06:42:17;102150.44;;;-5.24;95.10
72262;BME280;60173;52.112;8.648;2023-02-28T06:44:43;102152.28;;;-5.16;95.04
72262;BME280;60173;52.112;8.648;2023-02-28T06:47:10;102160.31;;;-5.08;94.98
72262;BME280;60173;52.112;8.648;2023-02-28T06:49:36;102156.66;;;-5.07;94.58
72262;BME280;60173;52.112;8.648;2023-02-28T06:52:03;102160.06;;;-4.96;94.49
72262;BME280;60173;52.112;8.648;2023-02-28T06:54:29;102162.94;;;-4.90;94.15
72262;BME280;60173;52.112;8.648;2023-02-28T06:56:57;102162.88;;;-4.72;94.06
72262;BME280;60173;52.112;8.648;2023-02-28T06:59:23;102173.03;;;-4.67;93.15
72262;BME280;60173;52.112;8.648;2023-02-28T07:01:50;102171.91;;;-4.65;92.96
72262;BME280;60173;52.112;8.648;2023-02-28T07:04:16;102172.53;;;-4.45;93.04
72262;BME280;60173;52.112;8.648;2023-02-28T07:06:43;102171.75;;;-4.29;92.33
72262;BME280;60173;52.112;8.648;2023-02-28T07:09:09;102175.34;;;-4.12;91.78
72262;BME280;60173;52.112;8.648;2023-02-28T07:11:35;102182.97;;;-4.09;91.14
72262;BME280;60173;52.112;8.648;2023-02-28T07:14:02;102189.44;;;-4.12;90.37
72262;BME280;60173;52.112;8.648;2023-02-28T07:16:28;102188.47;;;-4.02;90.14
72262;BME280;60173;52.112;8.648;2023-02-28T07:18:55;102190.53;;;-3.88;90.47
72262;BME280;60173;52.112;8.648;2023-02-28T07:21:21;102190.56;;;-3.80;89.90
72262;BME280;60173;52.112;8.648;2023-02-28T07:23:48;102193.88;;;-3.78;89.85
72262;BME280;60173;52.112;8.648;2023-02-28T07:26:16;102196.53;;;-3.78;89.77
72262;BME280;60173;52.112;8.648;2023-02-28T07:28:45;102196.06;;;-3.65;89.96
72262;BME280;60173;52.112;8.648;2023-02-28T07:31:12;102212.38;;;-3.60;90.08
72262;BME280;60173;52.112;8.648;2023-02-28T07:33:39;102207.44;;;-3.47;90.19
72262;BME280;60173;52.112;8.648;2023-02-28T07:36:12;102203.97;;;-3.31;90.12
72262;BME280;60173;52.112;8.648;2023-02-28T07:38:39;102203.81;;;-3.21;89.64
72262;BME280;60173;52.112;8.648;2023-02-28T07:41:05;102208.31;;;-3.13;89.39
72262;BME280;60173;52.112;8.648;2023-02-28T07:43:32;102203.81;;;-3.05;89.35
72262;BME280;60173;52.112;8.648;2023-02-28T07:46:07;102208.31;;;-3.05;89.47
72262;BME280;60173;52.112;8.648;2023-02-28T07:48:34;102214.00;;;-2.92;89.82
72262;BME280;60173;52.112;8.648;2023-02-28T07:51:00;102212.31;;;-2.77;90.06
72262;BME280;60173;52.112;8.648;2023-02-28T07:53:27;102209.13;;;-2.64;90.13
72262;BME280;60173;52.112;8.648;2023-02-28T07:55:58;102205.97;;;-2.51;89.18
72262;BME280;60173;52.112;8.648;2023-02-28T07:58:26;102208.59;;;-2.35;88.53
72262;BME280;60173;52.112;8.648;2023-02-28T08:00:53;102201.25;;;-2.24;87.54
72262;BME280;60173;52.112;8.648;2023-02-28T08:03:21;102196.53;;;-2.06;86.56
72262;BME280;60173;52.112;8.648;2023-02-28T08:05:48;102193.44;;;-1.78;85.39
72262;BME280;60173;52.112;8.648;2023-02-28T08:08:15;102192.88;;;-1.66;84.30
72262;BME280;60173;52.112;8.648;2023-02-28T08:10:42;102195.22;;;-2.02;84.14
72262;BME280;60173;52.112;8.648;2023-02-28T08:13:09;102193.41;;;-1.70;84.53
72262;BME280;60173;52.112;8.648;2023-02-28T08:15:36;102195.09;;;-1.46;83.95
72262;BME280;60173;52.112;8.648;2023-02-28T08:18:02;102194.22;;;-1.39;82.45
72262;BME280;60173;52.112;8.648;2023-02-28T08:20:28;102198.44;;;-1.21;83.18
72262;BME280;60173;52.112;8.648;2023-02-28T08:22:55;102195.22;;;-1.17;83.08
72262;BME280;60173;52.112;8.648;2023-02-28T08:25:21;102192.34;;;-1.07;83.78
72262;BME280;60173;52.112;8.648;2023-02-28T08:27:50;102192.84;;;-0.88;83.52
72262;BME280;60173;52.112;8.648;2023-02-28T08:30:17;102198.28;;;-0.82;82.69
72262;BME280;60173;52.112;8.648;2023-02-28T08:32:43;102189.56;;;-0.76;82.53
72262;BME280;60173;52.112;8.648;2023-02-28T08:35:10;102194.75;;;-0.59;82.09
72262;BME280;60173;52.112;8.648;2023-02-28T08:37:36;102194.50;;;-0.35;82.18
72262;BME280;60173;52.112;8.648;2023-02-28T08:40:03;102189.91;;;-0.26;80.14
72262;BME280;60173;52.112;8.648;2023-02-28T08:42:31;102201.06;;;-0.08;80.05
72262;BME280;60173;52.112;8.648;2023-02-28T08:44:58;102190.84;;;-0.04;77.47
72262;BME280;60173;52.112;8.648;2023-02-28T08:47:24;102195.41;;;0.17;77.39
72262;BME280;60173;52.112;8.648;2023-02-28T08:49:51;102196.47;;;0.01;76.76
72262;BME280;60173;52.112;8.648;2023-02-28T08:52:17;102193.22;;;-0.39;78.53
72262;BME280;60173;52.112;8.648;2023-02-28T08:54:44;102195.25;;;0.04;78.09
72262;BME280;60173;52.112;8.648;2023-02-28T08:57:10;102189.28;;;0.53;75.81
72262;BME280;60173;52.112;8.648;2023-02-28T08:59:36;102187.16;;;0.12;73.32
72262;BME280;60173;52.112;8.648;2023-02-28T09:02:03;102188.53;;;0.08;73.25
72262;BME280;60173;52.112;8.648;2023-02-28T09:04:29;102186.03;;;0.57;70.82
72262;BME280;60173;52.112;8.648;2023-02-28T09:06:55;102186.22;;;0.77;68.55
72262;BME280;60173;52.112;8.648;2023-02-28T09:09:22;102187.53;;;0.81;65.67
72262;BME280;60173;52.112;8.648;2023-02-28T09:11:48;102181.72;;;0.99;64.48
72262;BME280;60173;52.112;8.648;2023-02-28T09:14:15;102183.25;;;1.37;62.96
72262;BME280;60173;52.112;8.648;2023-02-28T09:16:41;102180.59;;;1.37;61.76
72262;BME280;60173;52.112;8.648;2023-02-28T09:19:10;102181.88;;;1.75;60.44
72262;BME280;60173;52.112;8.648;2023-02-28T09:21:37;102182.28;;;1.79;62.36
72262;BME280;60173;52.112;8.648;2023-02-28T09:24:07;102178.94;;;1.70;62.20
72262;BME280;60173;52.112;8.648;2023-02-28T09:26:34;102180.28;;;1.88;60.99
72262;BME280;60173;52.112;8.648;2023-02-28T09:29:12;102186.59;;;1.73;60.72
72262;BME280;60173;52.112;8.648;2023-02-28T09:31:39;102184.50;;;2.03;59.70
72262;BME280;60173;52.112;8.648;2023-02-28T09:34:05;102176.66;;;2.02;57.19
72262;BME280;60173;52.112;8.648;2023-02-28T09:36:31;102185.00;;;2.20;57.00
72262;BME280;60173;52.112;8.648;2023-02-28T09:39:10;102180.94;;;2.44;56.57
72262;BME280;60173;52.112;8.648;2023-02-28T09:41:39;102186.91;;;2.40;53.89
72262;BME280;60173;52.112;8.648;2023-02-28T09:44:10;102192.78;;;2.63;53.85
72262;BME280;60173;52.112;8.648;2023-02-28T09:46:43;102177.22;;;2.39;53.56
72262;BME280;60173;52.112;8.648;2023-02-28T09:49:18;102182.97;;;2.36;53.95
72262;BME280;60173;52.112;8.648;2023-02-28T09:51:56;102184.03;;;2.41;54.18
72262;BME280;60173;52.112;8.648;2023-02-28T09:54:28;102187.59;;;2.68;53.80
72262;BME280;60173;52.112;8.648;2023-02-28T09:56:56;102185.75;;;2.69;54.05
72262;BME280;60173;52.112;8.648;2023-02-28T09:59:45;102194.63;;;2.69;53.49
72262;BME280;60173;52.112;8.648;2023-02-28T10:02:17;102180.59;;;2.61;53.76
72262;BME280;60173;52.112;8.648;2023-02-28T10:05:07;102184.72;;;2.63;54.21
72262;BME280;60173;52.112;8.648;2023-02-28T10:10:27;102189.06;;;2.71;54.39
72262;BME280;60173;52.112;8.648;2023-02-28T10:12:59;102193.81;;;2.82;54.52
72262;BME280;60173;52.112;8.648;2023-02-28T10:15:30;102182.50;;;2.87;53.75
72262;BME280;60173;52.112;8.648;2023-02-28T10:18:01;102185.38;;;2.85;54.51
72262;BME280;60173;52.112;8.648;2023-02-28T10:20:39;102187.00;;;2.86;54.38
72262;BME280;60173;52.112;8.648;2023-02-28T10:23:17;102188.47;;;2.82;55.01
72262;BME280;60173;52.112;8.648;2023-02-28T10:25:52;102180.63;;;3.21;53.44
72262;BME280;60173;52.112;8.648;2023-02-28T10:28:20;102173.22;;;3.16;52.96
72262;BME280;60173;52.112;8.648;2023-02-28T10:30:49;102176.50;;;3.38;52.75
72262;BME280;60173;52.112;8.648;2023-02-28T10:33:24;102167.44;;;3.39;53.25
72262;BME280;60173;52.112;8.648;2023-02-28T10:35:52;102178.78;;;3.08;52.13
72262;BME280;60173;52.112;8.648;2023-02-28T10:38:22;102181.44;;;2.94;51.21
72262;BME280;60173;52.112;8.648;2023-02-28T10:40:49;102177.75;;;2.96;51.52
72262;BME280;60173;52.112;8.648;2023-02-28T10:48:33;102170.31;;;3.51;50.90
72262;BME280;60173;52.112;8.648;2023-02-28T10:51:01;102169.78;;;3.87;50.72
72262;BME280;60173;52.112;8.648;2023-02-28T10:53:49;102171.03;;;3.84;49.78
72262;BME280;60173;52.112;8.648;2023-02-28T10:56:27;102175.53;;;4.04;50.09
72262;BME280;60173;52.112;8.648;2023-02-28T10:58:57;102160.59;;;4.15;49.89
72262;BME280;60173;52.112;8.648;2023-02-28T11:03:56;102159.53;;;3.71;48.96
72262;BME280;60173;52.112;8.648;2023-02-28T11:06:28;102160.78;;;3.55;48.95
72262;BME280;60173;52.112;8.648;2023-02-28T11:08:58;102148.78;;;3.57;49.52
72262;BME280;60173;52.112;8.648;2023-02-28T11:11:28;102152.88;;;3.80;49.05
72262;BME280;60173;52.112;8.648;2023-02-28T11:13:57;102155.84;;;3.45;49.36
72262;BME280;60173;52.112;8.648;2023-02-28T11:16:37;102144.00;;;3.73;49.00
72262;BME280;60173;52.112;8.648;2023-02-28T11:19:06;102153.25;;;3.90;49.31
72262;BME280;60173;52.112;8.648;2023-02-28T11:21:49;102140.84;;;3.89;49.77
72262;BME280;60173;52.112;8.648;2023-02-28T11:24:23;102157.09;;;3.43;49.10
72262;BME280;60173;52.112;8.648;2023-02-28T11:26:50;102146.94;;;3.51;50.28
72262;BME280;60173;52.112;8.648;2023-02-28T11:29:24;102151.69;;;3.62;49.53
72262;BME280;60173;52.112;8.648;2023-02-28T11:32:15;102145.13;;;3.19;50.37
72262;BME280;60173;52.112;8.648;2023-02-28T11:34:44;102142.16;;;3.73;49.86
72262;BME280;60173;52.112;8.648;2023-02-28T11:37:16;102139.72;;;3.45;50.49
72262;BME280;60173;52.112;8.648;2023-02-28T11:39:44;102130.59;;;3.53;51.38
72262;BME280;60173;52.112;8.648;2023-02-28T11:42:27;102135.00;;;3.34;50.50
72262;BME280;60173;52.112;8.648;2023-02-28T11:45:31;102141.41;;;3.20;50.73
72262;BME280;60173;52.112;8.648;2023-02-28T11:48:20;102127.53;;;3.43;50.03
72262;BME280;60173;52.112;8.648;2023-02-28T11:54:12;102129.91;;;3.84;50.34
72262;BME280;60173;52.112;8.648;2023-02-28T11:56:51;102135.50;;;3.82;50.41
72262;BME280;60173;52.112;8.648;2023-02-28T11:59:33;102118.09;;;3.92;49.53
72262;BME280;60173;52.112;8.648;2023-02-28T12:02:24;102122.81;;;3.11;51.77
72262;BME280;60173;52.112;8.648;2023-02-28T12:10:22;102116.78;;;4.07;50.39
72262;BME280;60173;52.112;8.648;2023-02-28T12:18:53;102097.38;;;3.99;48.39
72262;BME280;60173;52.112;8.648;2023-02-28T12:27:06;102093.16;;;4.16;46.38
72262;BME280;60173;52.112;8.648;2023-02-28T12:29:52;102094.78;;;4.24;46.43
72262;BME280;60173;52.112;8.648;2023-02-28T12:32:36;102083.09;;;4.68;47.39
72262;BME280;60173;52.112;8.648;2023-02-28T12:35:13;102085.25;;;4.85;46.23
72262;BME280;60173;52.112;8.648;2023-02-28T12:37:44;102078.59;;;4.30;46.38
72262;BME280;60173;52.112;8.648;2023-02-28T12:40:22;102075.31;;;4.28;46.91
72262;BME280;60173;52.112;8.648;2023-02-28T12:42:51;102075.84;;;4.05;47.49
72262;BME280;60173;52.112;8.648;2023-02-28T12:45:20;102078.97;;;4.02;47.02
72262;BME280;60173;52.112;8.648;2023-02-28T12:47:52;102076.72;;;3.99;47.55
72262;BME280;60173;52.112;8.648;2023-02-28T12:50:22;102082.66;;;4.08;47.39
72262;BME280;60173;52.112;8.648;2023-02-28T12:58:24;102072.50;;;4.10;47.90
72262;BME280;60173;52.112;8.648;2023-02-28T13:04:13;102051.81;;;3.72;48.04
72262;BME280;60173;52.112;8.648;2023-02-28T13:09:57;102057.22;;;4.04;48.50
72262;BME280;60173;52.112;8.648;2023-02-28T13:12:25;102054.38;;;3.99;49.53
72262;BME280;60173;52.112;8.648;2023-02-28T13:15:07;102049.75;;;4.13;48.30
72262;BME280;60173;52.112;8.648;2023-02-28T13:17:34;102049.09;;;3.79;48.90
72262;BME280;60173;52.112;8.648;2023-02-28T13:20:01;102044.28;;;3.94;49.00
72262;BME280;60173;52.112;8.648;2023-02-28T13:22:41;102047.81;;;3.88;49.80
72262;BME280;60173;52.112;8.648;2023-02-28T13:27:50;102043.16;;;4.08;49.42
72262;BME280;60173;52.112;8.648;2023-02-28T13:33:31;102039.31;;;3.91;48.26
72262;BME280;60173;52.112;8.648;2023-02-28T13:36:31;102044.41;;;4.06;48.81
72262;BME280;60173;52.112;8.648;2023-02-28T13:39:00;102035.97;;;3.96;48.83
72262;BME280;60173;52.112;8.648;2023-02-28T13:44:07;102042.47;;;4.20;49.60
72262;BME280;60173;52.112;8.648;2023-02-28T13:46:36;102039.38;;;4.16;49.11
72262;BME280;60173;52.112;8.648;2023-02-28T13:52:10;102036.97;;;4.08;49.82
72262;BME280;60173;52.112;8.648;2023-02-28T13:57:49;102026.59;;;4.37;50.63
72262;BME280;60173;52.112;8.648;2023-02-28T14:08:36;102027.91;;;4.34;49.56
72262;BME280;60173;52.112;8.648;2023-02-28T14:11:05;102031.16;;;4.11;49.97
72262;BME280;60173;52.112;8.648;2023-02-28T14:16:08;102018.72;;;4.17;50.12
72262;BME280;60173;52.112;8.648;2023-02-28T14:18:41;102025.53;;;4.13;50.79
72262;BME280;60173;52.112;8.648;2023-02-28T14:21:14;102018.28;;;4.13;50.29
72262;BME280;60173;52.112;8.648;2023-02-28T14:26:53;102016.59;;;4.19;50.11
72262;BME280;60173;52.112;8.648;2023-02-28T14:29:43;102010.19;;;4.20;50.26
72262;BME280;60173;52.112;8.648;2023-02-28T14:37:30;102004.22;;;4.18;49.83
72262;BME280;60173;52.112;8.648;2023-02-28T14:40:00;102006.19;;;3.97;50.72
72262;BME280;60173;52.112;8.648;2023-02-28T14:42:32;102005.19;;;3.92;50.22
72262;BME280;60173;52.112;8.648;2023-02-28T14:45:00;102000.78;;;4.04;50.46
72262;BME280;60173;52.112;8.648;2023-02-28T14:47:33;102000.38;;;4.00;50.08
72262;BME280;60173;52.112;8.648;2023-02-28T14:50:02;102006.63;;;3.94;50.31